sensor_id;sensor_type;location;lat;lon;timestamp;temperature;humidity
1760;DHT22;877;46.266;20.062;2023-06-10T00:01:01;18.60;90.70
1760;DHT22;877;46.266;20.062;2023-06-10T00:03:27;18.50;90.90
1760;DHT22;877;46.266;20.062;2023-06-10T00:05:59;18.50;91.40
1760;DHT22;877;46.266;20.062;2023-06-10T00:08:30;18.60;90.70
1760;DHT22;877;46.266;20.062;2023-06-10T00:10:57;18.50;91.20
1760;DHT22;877;46.266;20.062;2023-06-10T00:13:34;18.40;92.20
1760;DHT22;877;46.266;20.062;2023-06-10T00:16:01;18.40;92.50
1760;DHT22;877;46.266;20.062;2023-06-10T00:18:29;18.30;92.80
1760;DHT22;877;46.266;20.062;2023-06-10T00:21:05;18.40;91.50
1760;DHT22;877;46.266;20.062;2023-06-10T00:23:31;18.40;91.30
1760;DHT22;877;46.266;20.062;2023-06-10T00:26:00;18.30;91.50
1760;DHT22;877;46.266;20.062;2023-06-10T00:28:27;18.20;91.80
1760;DHT22;877;46.266;20.062;2023-06-10T00:30:58;18.20;91.80
1760;DHT22;877;46.266;20.062;2023-06-10T00:33:30;18.30;91.20
1760;DHT22;877;46.266;20.062;2023-06-10T00:35:56;18.20;91.10
1760;DHT22;877;46.266;20.062;2023-06-10T00:38:25;18.00;91.70
1760;DHT22;877;46.266;20.062;2023-06-10T00:40:53;18.00;91.40
1760;DHT22;877;46.266;20.062;2023-06-10T00:43:20;17.90;91.20
1760;DHT22;877;46.266;20.062;2023-06-10T00:45:48;17.90;91.40
1760;DHT22;877;46.266;20.062;2023-06-10T00:48:19;18.00;91.10
1760;DHT22;877;46.266;20.062;2023-06-10T00:50:51;18.00;90.90
1760;DHT22;877;46.266;20.062;2023-06-10T00:53:16;18.00;91.10
1760;DHT22;877;46.266;20.062;2023-06-10T00:55:48;17.90;91.70
1760;DHT22;877;46.266;20.062;2023-06-10T00:58:20;17.90;91.90
1760;DHT22;877;46.266;20.062;2023-06-10T01:00:48;17.90;91.70
1760;DHT22;877;46.266;20.062;2023-06-10T01:03:23;18.00;91.30
1760;DHT22;877;46.266;20.062;2023-06-10T01:06:00;17.80;92.80
1760;DHT22;877;46.266;20.062;2023-06-10T01:08:43;17.30;95.80
1760;DHT22;877;46.266;20.062;2023-06-10T01:11:21;17.10;97.60
1760;DHT22;877;46.266;20.062;2023-06-10T01:14:06;17.00;98.40
1760;DHT22;877;46.266;20.062;2023-06-10T01:16:34;17.20;97.30
1760;DHT22;877;46.266;20.062;2023-06-10T01:19:03;17.50;95.20
1760;DHT22;877;46.266;20.062;2023-06-10T01:21:31;17.70;93.20
1760;DHT22;877;46.266;20.062;2023-06-10T01:23:58;17.70;92.70
1760;DHT22;877;46.266;20.062;2023-06-10T01:26:32;17.70;92.50
1760;DHT22;877;46.266;20.062;2023-06-10T01:29:18;17.70;92.30
1760;DHT22;877;46.266;20.062;2023-06-10T01:32:06;17.70;92.70
1760;DHT22;877;46.266;20.062;2023-06-10T01:34:35;17.20;96.20
1760;DHT22;877;46.266;20.062;2023-06-10T01:37:17;16.90;98.40
1760;DHT22;877;46.266;20.062;2023-06-10T01:39:52;16.90;98.60
1760;DHT22;877;46.266;20.062;2023-06-10T01:42:25;17.10;97.60
1760;DHT22;877;46.266;20.062;2023-06-10T01:45:06;17.20;96.90
1760;DHT22;877;46.266;20.062;2023-06-10T01:47:34;17.20;96.20
1760;DHT22;877;46.266;20.062;2023-06-10T01:50:14;17.30;95.40
1760;DHT22;877;46.266;20.062;2023-06-10T01:52:46;17.50;94.40
1760;DHT22;877;46.266;20.062;2023-06-10T01:55:14;17.60;93.70
1760;DHT22;877;46.266;20.062;2023-06-10T01:57:42;17.60;93.30
1760;DHT22;877;46.266;20.062;2023-06-10T02:00:08;17.60;93.30
1760;DHT22;877;46.266;20.062;2023-06-10T02:02:42;17.30;94.90
1760;DHT22;877;46.266;20.062;2023-06-10T02:05:14;16.80;97.50
1760;DHT22;877;46.266;20.062;2023-06-10T02:07:40;16.80;98.20
1760;DHT22;877;46.266;20.062;2023-06-10T02:10:06;17.10;96.40
1760;DHT22;877;46.266;20.062;2023-06-10T02:12:34;17.30;94.90
1760;DHT22;877;46.266;20.062;2023-06-10T02:15:00;17.30;95.00
1760;DHT22;877;46.266;20.062;2023-06-10T02:17:26;17.40;94.00
1760;DHT22;877;46.266;20.062;2023-06-10T02:19:52;17.40;93.90
1760;DHT22;877;46.266;20.062;2023-06-10T02:22:23;17.50;93.30
1760;DHT22;877;46.266;20.062;2023-06-10T02:25:00;17.50;93.70
1760;DHT22;877;46.266;20.062;2023-06-10T02:27:29;17.30;94.80
1760;DHT22;877;46.266;20.062;2023-06-10T02:29:57;17.30;94.70
1760;DHT22;877;46.266;20.062;2023-06-10T02:32:23;17.30;94.90
1760;DHT22;877;46.266;20.062;2023-06-10T02:34:58;17.00;95.90
1760;DHT22;877;46.266;20.062;2023-06-10T02:37:34;17.10;95.60
1760;DHT22;877;46.266;20.062;2023-06-10T02:40:11;17.20;94.80
1760;DHT22;877;46.266;20.062;2023-06-10T02:42:47;17.20;94.10
1760;DHT22;877;46.266;20.062;2023-06-10T02:45:28;17.40;93.30
1760;DHT22;877;46.266;20.062;2023-06-10T02:47:58;17.40;92.80
1760;DHT22;877;46.266;20.062;2023-06-10T02:50:32;17.30;93.30
1760;DHT22;877;46.266;20.062;2023-06-10T02:53:15;17.20;94.00
1760;DHT22;877;46.266;20.062;2023-06-10T02:55:41;17.20;93.90
1760;DHT22;877;46.266;20.062;2023-06-10T03:01:28;17.30;93.20
1760;DHT22;877;46.266;20.062;2023-06-10T03:03:59;17.30;93.00
1760;DHT22;877;46.266;20.062;2023-06-10T03:06:38;17.10;94.00
1760;DHT22;877;46.266;20.062;2023-06-10T03:09:16;16.90;95.10
1760;DHT22;877;46.266;20.062;2023-06-10T03:11:44;17.00;94.80
1760;DHT22;877;46.266;20.062;2023-06-10T03:14:17;17.20;94.30
1760;DHT22;877;46.266;20.062;2023-06-10T03:16:49;17.30;93.60
1760;DHT22;877;46.266;20.062;2023-06-10T03:19:19;17.40;93.10
1760;DHT22;877;46.266;20.062;2023-06-10T03:21:50;17.40;92.30
1760;DHT22;877;46.266;20.062;2023-06-10T03:24:20;17.40;92.60
1760;DHT22;877;46.266;20.062;2023-06-10T03:26:46;17.20;93.90
1760;DHT22;877;46.266;20.062;2023-06-10T03:29:27;16.50;97.90
1760;DHT22;877;46.266;20.062;2023-06-10T03:31:53;16.40;99.60
1760;DHT22;877;46.266;20.062;2023-06-10T03:34:25;16.20;99.80
1760;DHT22;877;46.266;20.062;2023-06-10T03:36:51;16.30;99.90
1760;DHT22;877;46.266;20.062;2023-06-10T03:39:16;16.40;99.60
1760;DHT22;877;46.266;20.062;2023-06-10T03:41:47;16.80;97.90
1760;DHT22;877;46.266;20.062;2023-06-10T03:44:18;16.90;96.70
1760;DHT22;877;46.266;20.062;2023-06-10T03:47:13;16.50;98.60
1760;DHT22;877;46.266;20.062;2023-06-10T03:49:42;16.40;99.80
1760;DHT22;877;46.266;20.062;2023-06-10T03:52:11;16.40;100.00
1760;DHT22;877;46.266;20.062;2023-06-10T03:54:43;16.50;99.90
1760;DHT22;877;46.266;20.062;2023-06-10T03:57:11;16.50;100.00
1760;DHT22;877;46.266;20.062;2023-06-10T03:59:38;16.70;99.50
1760;DHT22;877;46.266;20.062;2023-06-10T04:02:04;16.70;99.10
1760;DHT22;877;46.266;20.062;2023-06-10T04:04:30;16.90;98.60
1760;DHT22;877;46.266;20.062;2023-06-10T04:06:58;17.10;97.20
1760;DHT22;877;46.266;20.062;2023-06-10T04:09:28;17.00;95.60
1760;DHT22;877;46.266;20.062;2023-06-10T04:11:58;16.90;96.60
1760;DHT22;877;46.266;20.062;2023-06-10T04:14:36;16.70;97.90
1760;DHT22;877;46.266;20.062;2023-06-10T04:17:04;16.70;99.10
1760;DHT22;877;46.266;20.062;2023-06-10T04:19:44;17.20;97.00
1760;DHT22;877;46.266;20.062;2023-06-10T04:22:10;17.50;94.90
1760;DHT22;877;46.266;20.062;2023-06-10T04:24:37;17.70;94.20
1760;DHT22;877;46.266;20.062;2023-06-10T04:27:04;17.70;93.30
1760;DHT22;877;46.266;20.062;2023-06-10T04:29:32;17.70;93.60
1760;DHT22;877;46.266;20.062;2023-06-10T04:32:04;17.60;94.30
1760;DHT22;877;46.266;20.062;2023-06-10T04:34:33;17.60;94.70
1760;DHT22;877;46.266;20.062;2023-06-10T04:36:59;17.50;95.70
1760;DHT22;877;46.266;20.062;2023-06-10T04:39:33;17.30;97.30
1760;DHT22;877;46.266;20.062;2023-06-10T04:42:03;17.60;96.90
1760;DHT22;877;46.266;20.062;2023-06-10T04:44:31;18.00;95.40
1760;DHT22;877;46.266;20.062;2023-06-10T04:47:06;18.10;94.40
1760;DHT22;877;46.266;20.062;2023-06-10T04:49:33;18.50;93.40
1760;DHT22;877;46.266;20.062;2023-06-10T04:52:04;18.80;92.80
1760;DHT22;877;46.266;20.062;2023-06-10T04:54:30;18.80;92.50
1760;DHT22;877;46.266;20.062;2023-06-10T04:56:59;19.00;92.00
1760;DHT22;877;46.266;20.062;2023-06-10T04:59:27;19.10;91.50
1760;DHT22;877;46.266;20.062;2023-06-10T05:01:58;19.20;91.70
1760;DHT22;877;46.266;20.062;2023-06-10T05:04:25;19.20;91.40
1760;DHT22;877;46.266;20.062;2023-06-10T05:06:53;19.20;91.70
1760;DHT22;877;46.266;20.062;2023-06-10T05:09:20;19.30;91.60
1760;DHT22;877;46.266;20.062;2023-06-10T05:11:46;19.40;91.60
1760;DHT22;877;46.266;20.062;2023-06-10T05:14:13;19.50;91.20
1760;DHT22;877;46.266;20.062;2023-06-10T05:16:42;19.50;91.10
1760;DHT22;877;46.266;20.062;2023-06-10T05:19:08;19.50;91.20
1760;DHT22;877;46.266;20.062;2023-06-10T05:21:34;19.50;91.10
1760;DHT22;877;46.266;20.062;2023-06-10T05:24:00;19.60;91.40
1760;DHT22;877;46.266;20.062;2023-06-10T05:26:27;19.70;91.20
1760;DHT22;877;46.266;20.062;2023-06-10T05:28:54;19.70;91.00
1760;DHT22;877;46.266;20.062;2023-06-10T05:31:22;19.80;90.80
1760;DHT22;877;46.266;20.062;2023-06-10T05:33:48;19.90;90.40
1760;DHT22;877;46.266;20.062;2023-06-10T05:36:15;20.00;90.10
1760;DHT22;877;46.266;20.062;2023-06-10T05:38:43;20.00;90.10
1760;DHT22;877;46.266;20.062;2023-06-10T05:41:08;20.00;89.70
1760;DHT22;877;46.266;20.062;2023-06-10T05:43:34;20.10;89.40
1760;DHT22;877;46.266;20.062;2023-06-10T05:46:01;20.10;89.50
1760;DHT22;877;46.266;20.062;2023-06-10T05:48:28;20.20;89.10
1760;DHT22;877;46.266;20.062;2023-06-10T05:50:54;20.30;88.50
1760;DHT22;877;46.266;20.062;2023-06-10T05:53:20;20.00;89.80
1760;DHT22;877;46.266;20.062;2023-06-10T05:55:46;20.10;88.80
1760;DHT22;877;46.266;20.062;2023-06-10T05:58:14;20.20;89.10
1760;DHT22;877;46.266;20.062;2023-06-10T06:00:40;19.40;92.00
1760;DHT22;877;46.266;20.062;2023-06-10T06:03:07;19.60;91.90
1760;DHT22;877;46.266;20.062;2023-06-10T06:05:37;20.00;91.90
1760;DHT22;877;46.266;20.062;2023-06-10T06:08:07;20.60;89.20
1760;DHT22;877;46.266;20.062;2023-06-10T06:10:41;20.60;88.20
1760;DHT22;877;46.266;20.062;2023-06-10T06:13:08;20.90;88.10
1760;DHT22;877;46.266;20.062;2023-06-10T06:15:42;21.30;86.90
1760;DHT22;877;46.266;20.062;2023-06-10T06:18:10;21.40;84.90
1760;DHT22;877;46.266;20.062;2023-06-10T06:20:36;21.00;84.70
1760;DHT22;877;46.266;20.062;2023-06-10T06:23:02;21.40;85.70
1760;DHT22;877;46.266;20.062;2023-06-10T06:25:39;21.40;84.40
1760;DHT22;877;46.266;20.062;2023-06-10T06:28:10;21.70;82.00
1760;DHT22;877;46.266;20.062;2023-06-10T06:30:36;22.10;81.60
1760;DHT22;877;46.266;20.062;2023-06-10T06:33:02;22.00;79.40
1760;DHT22;877;46.266;20.062;2023-06-10T06:35:33;22.00;81.70
1760;DHT22;877;46.266;20.062;2023-06-10T06:38:06;22.40;79.90
1760;DHT22;877;46.266;20.062;2023-06-10T06:40:33;22.30;78.90
1760;DHT22;877;46.266;20.062;2023-06-10T06:42:59;22.20;80.40
1760;DHT22;877;46.266;20.062;2023-06-10T06:45:26;22.50;80.30
1760;DHT22;877;46.266;20.062;2023-06-10T06:47:52;22.60;78.50
1760;DHT22;877;46.266;20.062;2023-06-10T06:50:18;22.70;79.10
1760;DHT22;877;46.266;20.062;2023-06-10T06:52:44;22.80;78.50
1760;DHT22;877;46.266;20.062;2023-06-10T06:55:18;23.00;79.00
1760;DHT22;877;46.266;20.062;2023-06-10T06:57:45;22.90;77.10
1760;DHT22;877;46.266;20.062;2023-06-10T07:00:11;22.80;79.50
1760;DHT22;877;46.266;20.062;2023-06-10T07:02:41;23.50;78.30
1760;DHT22;877;46.266;20.062;2023-06-10T07:05:07;23.80;76.20
1760;DHT22;877;46.266;20.062;2023-06-10T07:07:33;23.60;76.30
1760;DHT22;877;46.266;20.062;2023-06-10T07:09:59;23.90;74.80
1760;DHT22;877;46.266;20.062;2023-06-10T07:12:25;24.10;74.20
1760;DHT22;877;46.266;20.062;2023-06-10T07:14:51;24.40;72.80
1760;DHT22;877;46.266;20.062;2023-06-10T07:17:19;24.60;72.50
1760;DHT22;877;46.266;20.062;2023-06-10T07:19:46;24.80;72.30
1760;DHT22;877;46.266;20.062;2023-06-10T07:22:11;25.30;69.70
1760;DHT22;877;46.266;20.062;2023-06-10T07:24:37;25.60;68.40
1760;DHT22;877;46.266;20.062;2023-06-10T07:27:03;25.60;68.00
1760;DHT22;877;46.266;20.062;2023-06-10T07:29:30;25.90;67.90
1760;DHT22;877;46.266;20.062;2023-06-10T07:31:55;26.10;65.70
1760;DHT22;877;46.266;20.062;2023-06-10T07:34:21;25.90;65.60
1760;DHT22;877;46.266;20.062;2023-06-10T07:36:47;25.80;65.30
1760;DHT22;877;46.266;20.062;2023-06-10T07:39:13;25.50;67.00
1760;DHT22;877;46.266;20.062;2023-06-10T07:41:39;25.40;67.40
1760;DHT22;877;46.266;20.062;2023-06-10T07:44:05;25.20;66.60
1760;DHT22;877;46.266;20.062;2023-06-10T07:46:32;25.20;66.60
1760;DHT22;877;46.266;20.062;2023-06-10T07:48:58;25.20;66.70
1760;DHT22;877;46.266;20.062;2023-06-10T07:51:23;25.20;65.80
1760;DHT22;877;46.266;20.062;2023-06-10T07:53:49;25.50;65.70
1760;DHT22;877;46.266;20.062;2023-06-10T07:56:15;25.70;65.30
1760;DHT22;877;46.266;20.062;2023-06-10T07:58:41;25.90;64.30
1760;DHT22;877;46.266;20.062;2023-06-10T08:01:06;25.50;64.00
1760;DHT22;877;46.266;20.062;2023-06-10T08:03:33;26.00;64.10
1760;DHT22;877;46.266;20.062;2023-06-10T08:05:59;26.60;63.10
1760;DHT22;877;46.266;20.062;2023-06-10T08:08:26;26.70;62.70
1760;DHT22;877;46.266;20.062;2023-06-10T08:10:53;27.00;60.80
1760;DHT22;877;46.266;20.062;2023-06-10T08:13:20;26.90;60.60
1760;DHT22;877;46.266;20.062;2023-06-10T08:15:46;27.10;59.00
1760;DHT22;877;46.266;20.062;2023-06-10T08:18:13;26.70;61.80
1760;DHT22;877;46.266;20.062;2023-06-10T08:20:39;27.20;59.80
1760;DHT22;877;46.266;20.062;2023-06-10T08:23:06;27.00;60.60
1760;DHT22;877;46.266;20.062;2023-06-10T08:25:34;26.60;60.60
1760;DHT22;877;46.266;20.062;2023-06-10T08:28:02;25.90;61.20
1760;DHT22;877;46.266;20.062;2023-06-10T08:30:29;25.40;64.20
1760;DHT22;877;46.266;20.062;2023-06-10T08:32:55;27.40;58.50
1760;DHT22;877;46.266;20.062;2023-06-10T08:35:21;28.40;56.80
1760;DHT22;877;46.266;20.062;2023-06-10T08:37:49;26.40;59.90
1760;DHT22;877;46.266;20.062;2023-06-10T08:40:15;27.50;56.50
1760;DHT22;877;46.266;20.062;2023-06-10T08:43:06;27.60;56.30
1760;DHT22;877;46.266;20.062;2023-06-10T08:45:35;26.30;58.50
1760;DHT22;877;46.266;20.062;2023-06-10T08:48:04;26.80;59.60
1760;DHT22;877;46.266;20.062;2023-06-10T08:50:38;26.80;56.50
1760;DHT22;877;46.266;20.062;2023-06-10T08:53:07;27.50;54.80
1760;DHT22;877;46.266;20.062;2023-06-10T08:55:38;28.40;54.70
1760;DHT22;877;46.266;20.062;2023-06-10T08:58:07;28.70;51.40
1760;DHT22;877;46.266;20.062;2023-06-10T09:00:36;26.30;56.00
1760;DHT22;877;46.266;20.062;2023-06-10T09:03:04;25.80;56.90
1760;DHT22;877;46.266;20.062;2023-06-10T09:05:33;26.80;56.50
1760;DHT22;877;46.266;20.062;2023-06-10T09:08:07;27.10;58.00
1760;DHT22;877;46.266;20.062;2023-06-10T09:10:34;26.80;53.90
1760;DHT22;877;46.266;20.062;2023-06-10T09:13:00;25.00;60.80
1760;DHT22;877;46.266;20.062;2023-06-10T09:15:31;24.30;64.70
1760;DHT22;877;46.266;20.062;2023-06-10T09:17:57;26.60;61.80
1760;DHT22;877;46.266;20.062;2023-06-10T09:20:23;28.30;56.10
1760;DHT22;877;46.266;20.062;2023-06-10T09:22:50;28.10;56.30
1760;DHT22;877;46.266;20.062;2023-06-10T09:25:17;26.50;57.80
1760;DHT22;877;46.266;20.062;2023-06-10T09:27:53;26.30;60.10
1760;DHT22;877;46.266;20.062;2023-06-10T09:30:38;28.80;54.30
1760;DHT22;877;46.266;20.062;2023-06-10T09:33:11;30.30;48.80
1760;DHT22;877;46.266;20.062;2023-06-10T09:35:45;31.30;46.70
1760;DHT22;877;46.266;20.062;2023-06-10T09:38:13;32.00;46.30
1760;DHT22;877;46.266;20.062;2023-06-10T09:40:53;32.10;46.10
1760;DHT22;877;46.266;20.062;2023-06-10T09:43:19;31.40;47.10
1760;DHT22;877;46.266;20.062;2023-06-10T09:45:49;28.80;52.80
1760;DHT22;877;46.266;20.062;2023-06-10T09:48:16;27.90;54.30
1760;DHT22;877;46.266;20.062;2023-06-10T09:50:43;27.10;57.20
1760;DHT22;877;46.266;20.062;2023-06-10T09:53:11;26.70;60.10
1760;DHT22;877;46.266;20.062;2023-06-10T09:55:55;26.40;62.50
1760;DHT22;877;46.266;20.062;2023-06-10T09:58:42;26.40;64.60
1760;DHT22;877;46.266;20.062;2023-06-10T10:01:38;26.30;66.70
1760;DHT22;877;46.266;20.062;2023-06-10T10:04:04;26.10;66.80
1760;DHT22;877;46.266;20.062;2023-06-10T10:06:32;25.80;66.30
1760;DHT22;877;46.266;20.062;2023-06-10T10:09:06;25.70;67.70
1760;DHT22;877;46.266;20.062;2023-06-10T10:11:33;25.00;69.60
1760;DHT22;877;46.266;20.062;2023-06-10T10:14:04;24.90;69.20
1760;DHT22;877;46.266;20.062;2023-06-10T10:16:40;24.80;69.10
1760;DHT22;877;46.266;20.062;2023-06-10T10:19:23;24.80;68.90
1760;DHT22;877;46.266;20.062;2023-06-10T10:21:54;24.60;68.60
1760;DHT22;877;46.266;20.062;2023-06-10T10:24:30;24.60;70.30
1760;DHT22;877;46.266;20.062;2023-06-10T10:26:59;24.80;70.30
1760;DHT22;877;46.266;20.062;2023-06-10T10:29:42;24.90;69.90
1760;DHT22;877;46.266;20.062;2023-06-10T10:32:12;24.90;70.50
1760;DHT22;877;46.266;20.062;2023-06-10T10:35:07;24.90;70.90
1760;DHT22;877;46.266;20.062;2023-06-10T10:37:37;25.20;70.20
1760;DHT22;877;46.266;20.062;2023-06-10T10:40:21;25.30;68.30
1760;DHT22;877;46.266;20.062;2023-06-10T10:42:52;25.10;70.60
1760;DHT22;877;46.266;20.062;2023-06-10T10:45:46;25.60;69.10
1760;DHT22;877;46.266;20.062;2023-06-10T10:48:16;25.40;69.30
1760;DHT22;877;46.266;20.062;2023-06-10T10:50:56;26.40;67.30
1760;DHT22;877;46.266;20.062;2023-06-10T10:53:24;27.30;64.40
1760;DHT22;877;46.266;20.062;2023-06-10T10:56:07;27.80;62.90
1760;DHT22;877;46.266;20.062;2023-06-10T10:58:35;28.70;60.30
1760;DHT22;877;46.266;20.062;2023-06-10T11:01:13;29.20;59.30
1760;DHT22;877;46.266;20.062;2023-06-10T11:03:44;29.60;56.10
1760;DHT22;877;46.266;20.062;2023-06-10T11:06:14;30.20;55.20
1760;DHT22;877;46.266;20.062;2023-06-10T11:11:27;30.30;53.50
1760;DHT22;877;46.266;20.062;2023-06-10T11:16:31;29.90;52.60
1760;DHT22;877;46.266;20.062;2023-06-10T11:19:03;29.80;53.00
1760;DHT22;877;46.266;20.062;2023-06-10T11:21:31;29.90;51.90
1760;DHT22;877;46.266;20.062;2023-06-10T11:23:58;29.60;50.30
1760;DHT22;877;46.266;20.062;2023-06-10T11:26:30;29.10;52.30
1760;DHT22;877;46.266;20.062;2023-06-10T11:29:04;29.70;48.40
1760;DHT22;877;46.266;20.062;2023-06-10T11:31:43;29.70;48.50
1760;DHT22;877;46.266;20.062;2023-06-10T11:34:12;29.90;47.20
1760;DHT22;877;46.266;20.062;2023-06-10T11:36:41;29.50;44.80
1760;DHT22;877;46.266;20.062;2023-06-10T11:39:09;28.20;48.40
1760;DHT22;877;46.266;20.062;2023-06-10T11:41:36;29.30;47.20
1760;DHT22;877;46.266;20.062;2023-06-10T11:46:37;28.10;50.80
1760;DHT22;877;46.266;20.062;2023-06-10T11:49:05;28.10;48.80
1760;DHT22;877;46.266;20.062;2023-06-10T11:51:37;28.20;50.00
1760;DHT22;877;46.266;20.062;2023-06-10T11:54:06;26.70;52.60
1760;DHT22;877;46.266;20.062;2023-06-10T11:56:32;26.70;53.50
1760;DHT22;877;46.266;20.062;2023-06-10T11:59:03;27.00;52.40
1760;DHT22;877;46.266;20.062;2023-06-10T12:01:34;27.50;54.60
1760;DHT22;877;46.266;20.062;2023-06-10T12:04:08;27.80;54.80
1760;DHT22;877;46.266;20.062;2023-06-10T12:06:49;27.80;56.00
1760;DHT22;877;46.266;20.062;2023-06-10T12:09:18;28.00;56.00
1760;DHT22;877;46.266;20.062;2023-06-10T12:11:44;25.60;58.60
1760;DHT22;877;46.266;20.062;2023-06-10T12:14:10;25.80;58.90
1760;DHT22;877;46.266;20.062;2023-06-10T12:16:37;25.40;57.30
1760;DHT22;877;46.266;20.062;2023-06-10T12:19:03;23.80;69.50
1760;DHT22;877;46.266;20.062;2023-06-10T12:21:32;23.30;72.10
1760;DHT22;877;46.266;20.062;2023-06-10T12:24:09;23.10;74.00
1760;DHT22;877;46.266;20.062;2023-06-10T12:26:43;22.70;75.30
1760;DHT22;877;46.266;20.062;2023-06-10T12:29:24;22.90;75.40
1760;DHT22;877;46.266;20.062;2023-06-10T12:31:58;23.00;74.80
1760;DHT22;877;46.266;20.062;2023-06-10T12:37:03;22.70;75.60
1760;DHT22;877;46.266;20.062;2023-06-10T12:39:32;22.90;74.00
1760;DHT22;877;46.266;20.062;2023-06-10T12:41:58;23.20;73.30
1760;DHT22;877;46.266;20.062;2023-06-10T12:44:35;23.50;71.70
1760;DHT22;877;46.266;20.062;2023-06-10T12:47:11;23.70;70.10
1760;DHT22;877;46.266;20.062;2023-06-10T12:49:41;23.90;68.80
1760;DHT22;877;46.266;20.062;2023-06-10T12:52:08;23.80;68.90
1760;DHT22;877;46.266;20.062;2023-06-10T12:54:35;23.90;69.80
1760;DHT22;877;46.266;20.062;2023-06-10T12:57:01;23.80;69.60
1760;DHT22;877;46.266;20.062;2023-06-10T12:59:27;23.70;69.30
1760;DHT22;877;46.266;20.062;2023-06-10T13:01:54;24.20;68.50
1760;DHT22;877;46.266;20.062;2023-06-10T13:04:21;24.30;66.90
1760;DHT22;877;46.266;20.062;2023-06-10T13:06:47;24.40;68.20
1760;DHT22;877;46.266;20.062;2023-06-10T13:09:14;24.00;68.00
1760;DHT22;877;46.266;20.062;2023-06-10T13:11:41;23.90;69.00
1760;DHT22;877;46.266;20.062;2023-06-10T13:14:08;24.10;69.30
1760;DHT22;877;46.266;20.062;2023-06-10T13:16:34;23.90;70.40
1760;DHT22;877;46.266;20.062;2023-06-10T13:19:00;24.80;68.70
1760;DHT22;877;46.266;20.062;2023-06-10T13:21:28;24.90;66.70
1760;DHT22;877;46.266;20.062;2023-06-10T13:23:53;24.50;68.60
1760;DHT22;877;46.266;20.062;2023-06-10T13:26:19;24.70;67.90
1760;DHT22;877;46.266;20.062;2023-06-10T13:28:46;24.20;70.00
1760;DHT22;877;46.266;20.062;2023-06-10T13:31:12;23.70;71.20
1760;DHT22;877;46.266;20.062;2023-06-10T13:33:38;24.00;71.10
1760;DHT22;877;46.266;20.062;2023-06-10T13:36:05;23.50;73.40
1760;DHT22;877;46.266;20.062;2023-06-10T13:38:31;23.00;72.00
1760;DHT22;877;46.266;20.062;2023-06-10T13:41:00;24.00;69.10
1760;DHT22;877;46.266;20.062;2023-06-10T13:43:25;24.10;69.50
1760;DHT22;877;46.266;20.062;2023-06-10T13:45:52;24.60;67.30
1760;DHT22;877;46.266;20.062;2023-06-10T13:48:18;24.40;67.90
1760;DHT22;877;46.266;20.062;2023-06-10T13:50:43;24.60;68.30
1760;DHT22;877;46.266;20.062;2023-06-10T13:53:13;24.50;69.90
1760;DHT22;877;46.266;20.062;2023-06-10T13:55:38;23.90;70.70
1760;DHT22;877;46.266;20.062;2023-06-10T13:58:04;24.20;70.40
1760;DHT22;877;46.266;20.062;2023-06-10T14:00:30;24.20;70.40
1760;DHT22;877;46.266;20.062;2023-06-10T14:02:56;24.40;70.00
1760;DHT22;877;46.266;20.062;2023-06-10T14:05:29;24.60;67.90
1760;DHT22;877;46.266;20.062;2023-06-10T14:07:55;23.90;71.00
1760;DHT22;877;46.266;20.062;2023-06-10T14:10:22;24.40;70.10
1760;DHT22;877;46.266;20.062;2023-06-10T14:12:49;24.40;70.70
1760;DHT22;877;46.266;20.062;2023-06-10T14:15:22;23.70;70.90
1760;DHT22;877;46.266;20.062;2023-06-10T14:17:47;23.80;70.90
1760;DHT22;877;46.266;20.062;2023-06-10T14:20:13;24.50;68.10
1760;DHT22;877;46.266;20.062;2023-06-10T14:22:39;23.80;70.10
1760;DHT22;877;46.266;20.062;2023-06-10T14:25:06;23.70;69.90
1760;DHT22;877;46.266;20.062;2023-06-10T14:27:33;24.20;69.60
1760;DHT22;877;46.266;20.062;2023-06-10T14:30:06;24.40;69.50
1760;DHT22;877;46.266;20.062;2023-06-10T14:32:32;25.00;67.30
1760;DHT22;877;46.266;20.062;2023-06-10T14:35:04;26.20;64.60
1760;DHT22;877;46.266;20.062;2023-06-10T14:37:30;25.90;64.20
1760;DHT22;877;46.266;20.062;2023-06-10T14:39:58;26.50;63.40
1760;DHT22;877;46.266;20.062;2023-06-10T14:42:24;27.80;59.50
1760;DHT22;877;46.266;20.062;2023-06-10T14:44:50;28.40;57.10
1760;DHT22;877;46.266;20.062;2023-06-10T14:47:16;27.60;58.10
1760;DHT22;877;46.266;20.062;2023-06-10T14:49:42;27.90;56.30
1760;DHT22;877;46.266;20.062;2023-06-10T14:52:09;28.30;56.80
1760;DHT22;877;46.266;20.062;2023-06-10T14:54:35;28.60;56.00
1760;DHT22;877;46.266;20.062;2023-06-10T14:57:01;29.50;55.20
1760;DHT22;877;46.266;20.062;2023-06-10T14:59:27;30.40;50.10
1760;DHT22;877;46.266;20.062;2023-06-10T15:01:56;30.30;51.80
1760;DHT22;877;46.266;20.062;2023-06-10T15:04:22;31.50;48.70
1760;DHT22;877;46.266;20.062;2023-06-10T15:06:48;31.60;48.10
1760;DHT22;877;46.266;20.062;2023-06-10T15:09:16;30.90;47.90
1760;DHT22;877;46.266;20.062;2023-06-10T15:11:42;30.60;49.40
1760;DHT22;877;46.266;20.062;2023-06-10T15:14:07;30.70;48.40
1760;DHT22;877;46.266;20.062;2023-06-10T15:16:34;30.60;50.10
1760;DHT22;877;46.266;20.062;2023-06-10T15:19:02;30.20;49.40
1760;DHT22;877;46.266;20.062;2023-06-10T15:21:28;30.60;48.00
1760;DHT22;877;46.266;20.062;2023-06-10T15:23:54;30.20;48.80
1760;DHT22;877;46.266;20.062;2023-06-10T15:26:20;30.20;47.70
1760;DHT22;877;46.266;20.062;2023-06-10T15:28:53;29.90;48.40
1760;DHT22;877;46.266;20.062;2023-06-10T15:31:20;29.50;51.20
1760;DHT22;877;46.266;20.062;2023-06-10T15:33:48;29.10;52.10
1760;DHT22;877;46.266;20.062;2023-06-10T15:36:13;29.00;50.30
1760;DHT22;877;46.266;20.062;2023-06-10T15:38:43;28.10;51.70
1760;DHT22;877;46.266;20.062;2023-06-10T15:41:09;27.70;51.60
1760;DHT22;877;46.266;20.062;2023-06-10T15:43:34;28.30;52.10
1760;DHT22;877;46.266;20.062;2023-06-10T15:46:02;28.90;51.10
1760;DHT22;877;46.266;20.062;2023-06-10T15:48:27;29.40;49.10
1760;DHT22;877;46.266;20.062;2023-06-10T15:50:53;29.30;49.40
1760;DHT22;877;46.266;20.062;2023-06-10T15:53:20;29.20;48.70
1760;DHT22;877;46.266;20.062;2023-06-10T15:55:46;29.60;49.10
1760;DHT22;877;46.266;20.062;2023-06-10T15:58:14;29.90;48.70
1760;DHT22;877;46.266;20.062;2023-06-10T16:00:40;30.00;48.40
1760;DHT22;877;46.266;20.062;2023-06-10T16:03:06;30.10;48.00
1760;DHT22;877;46.266;20.062;2023-06-10T16:05:31;29.90;47.00
1760;DHT22;877;46.266;20.062;2023-06-10T16:07:57;28.90;49.10
1760;DHT22;877;46.266;20.062;2023-06-10T16:10:26;30.00;48.60
1760;DHT22;877;46.266;20.062;2023-06-10T16:12:52;30.00;47.60
1760;DHT22;877;46.266;20.062;2023-06-10T16:15:17;30.00;46.80
1760;DHT22;877;46.266;20.062;2023-06-10T16:17:43;29.50;47.30
1760;DHT22;877;46.266;20.062;2023-06-10T16:20:09;28.90;49.40
1760;DHT22;877;46.266;20.062;2023-06-10T16:22:35;28.70;50.10
1760;DHT22;877;46.266;20.062;2023-06-10T16:25:02;28.40;51.10
1760;DHT22;877;46.266;20.062;2023-06-10T16:27:27;28.20;50.00
1760;DHT22;877;46.266;20.062;2023-06-10T16:30:02;28.80;49.00